sensor_id;sensor_type;location;lat;lon;timestamp;P1;durP1;ratioP1;P2;durP2;ratioP2
142;SDS011;63667;49.046;8.468;2023-11-19T00:00:57;2.80;;;2.57;;
142;SDS011;63667;49.046;8.468;2023-11-19T00:03:24;3.03;;;2.60;;
142;SDS011;63667;49.046;8.468;2023-11-19T00:05:50;5.53;;;2.60;;
142;SDS011;63667;49.046;8.468;2023-11-19T00:08:17;2.73;;;2.50;;
142;SDS011;63667;49.046;8.468;2023-11-19T00:10:45;3.23;;;2.40;;
142;SDS011;63667;49.046;8.468;2023-11-19T00:13:11;3.90;;;2.50;;
142;SDS011;63667;49.046;8.468;2023-11-19T00:15:38;3.33;;;2.43;;
142;SDS011;63667;49.046;8.468;2023-11-19T00:18:04;2.73;;;2.20;;
142;SDS011;63667;49.046;8.468;2023-11-19T00:20:31;3.60;;;2.17;;
142;SDS011;63667;49.046;8.468;2023-11-19T00:22:58;2.30;;;2.10;;
142;SDS011;63667;49.046;8.468;2023-11-19T00:25:24;3.27;;;2.30;;
142;SDS011;63667;49.046;8.468;2023-11-19T00:27:51;2.80;;;2.03;;
142;SDS011;63667;49.046;8.468;2023-11-19T00:30:18;5.27;;;2.50;;
142;SDS011;63667;49.046;8.468;2023-11-19T00:32:45;4.97;;;2.50;;
142;SDS011;63667;49.046;8.468;2023-11-19T00:35:11;4.43;;;2.10;;
142;SDS011;63667;49.046;8.468;2023-11-19T00:37:40;3.23;;;2.40;;
142;SDS011;63667;49.046;8.468;2023-11-19T00:40:08;3.17;;;2.40;;
142;SDS011;63667;49.046;8.468;2023-11-19T00:42:36;2.80;;;2.10;;
142;SDS011;63667;49.046;8.468;2023-11-19T00:45:02;4.63;;;2.20;;
142;SDS011;63667;49.046;8.468;2023-11-19T00:47:29;2.30;;;2.10;;
142;SDS011;63667;49.046;8.468;2023-11-19T00:49:56;5.03;;;2.03;;
142;SDS011;63667;49.046;8.468;2023-11-19T00:52:22;2.87;;;2.00;;
142;SDS011;63667;49.046;8.468;2023-11-19T00:54:49;2.60;;;2.10;;
142;SDS011;63667;49.046;8.468;2023-11-19T00:57:15;8.63;;;2.07;;
142;SDS011;63667;49.046;8.468;2023-11-19T00:59:42;2.50;;;2.07;;
142;SDS011;63667;49.046;8.468;2023-11-19T01:02:08;2.83;;;2.20;;
142;SDS011;63667;49.046;8.468;2023-11-19T01:04:35;2.53;;;2.13;;
142;SDS011;63667;49.046;8.468;2023-11-19T01:07:02;2.00;;;1.73;;
142;SDS011;63667;49.046;8.468;2023-11-19T01:09:32;4.30;;;2.30;;
142;SDS011;63667;49.046;8.468;2023-11-19T01:12:02;2.53;;;2.10;;
142;SDS011;63667;49.046;8.468;2023-11-19T01:14:28;2.00;;;1.80;;
142;SDS011;63667;49.046;8.468;2023-11-19T01:16:54;2.50;;;1.90;;
142;SDS011;63667;49.046;8.468;2023-11-19T01:19:21;3.27;;;2.03;;
142;SDS011;63667;49.046;8.468;2023-11-19T01:21:48;6.33;;;1.90;;
142;SDS011;63667;49.046;8.468;2023-11-19T01:24:14;2.90;;;2.23;;
142;SDS011;63667;49.046;8.468;2023-11-19T01:26:41;2.23;;;1.70;;
142;SDS011;63667;49.046;8.468;2023-11-19T01:29:11;3.00;;;2.00;;
142;SDS011;63667;49.046;8.468;2023-11-19T01:31:41;2.10;;;1.93;;
142;SDS011;63667;49.046;8.468;2023-11-19T01:34:07;2.77;;;2.00;;
142;SDS011;63667;49.046;8.468;2023-11-19T01:36:34;3.03;;;1.90;;
142;SDS011;63667;49.046;8.468;2023-11-19T01:39:00;2.53;;;2.00;;
142;SDS011;63667;49.046;8.468;2023-11-19T01:41:28;2.20;;;1.97;;
142;SDS011;63667;49.046;8.468;2023-11-19T01:43:54;2.37;;;1.80;;
142;SDS011;63667;49.046;8.468;2023-11-19T01:46:21;2.10;;;2.00;;
142;SDS011;63667;49.046;8.468;2023-11-19T01:48:47;2.30;;;1.77;;
142;SDS011;63667;49.046;8.468;2023-11-19T01:51:14;2.67;;;1.90;;
142;SDS011;63667;49.046;8.468;2023-11-19T01:53:42;2.40;;;1.83;;
142;SDS011;63667;49.046;8.468;2023-11-19T01:56:09;1.90;;;1.70;;
142;SDS011;63667;49.046;8.468;2023-11-19T01:58:36;4.60;;;1.90;;
142;SDS011;63667;49.046;8.468;2023-11-19T02:01:03;2.40;;;1.93;;
142;SDS011;63667;49.046;8.468;2023-11-19T02:03:33;4.60;;;2.20;;
142;SDS011;63667;49.046;8.468;2023-11-19T02:06:00;2.50;;;2.07;;
142;SDS011;63667;49.046;8.468;2023-11-19T02:08:27;2.67;;;1.87;;
142;SDS011;63667;49.046;8.468;2023-11-19T02:10:53;2.10;;;1.90;;
142;SDS011;63667;49.046;8.468;2023-11-19T02:13:23;3.83;;;2.07;;
142;SDS011;63667;49.046;8.468;2023-11-19T02:15:50;3.20;;;1.90;;
142;SDS011;63667;49.046;8.468;2023-11-19T02:18:17;3.17;;;2.00;;
142;SDS011;63667;49.046;8.468;2023-11-19T02:20:44;2.37;;;2.10;;
142;SDS011;63667;49.046;8.468;2023-11-19T02:23:11;3.33;;;2.40;;
142;SDS011;63667;49.046;8.468;2023-11-19T02:25:37;2.90;;;2.50;;
142;SDS011;63667;49.046;8.468;2023-11-19T02:28:04;2.43;;;2.17;;
142;SDS011;63667;49.046;8.468;2023-11-19T02:30:31;3.10;;;2.47;;
142;SDS011;63667;49.046;8.468;2023-11-19T02:33:00;6.10;;;2.30;;
142;SDS011;63667;49.046;8.468;2023-11-19T02:35:31;2.83;;;2.27;;
142;SDS011;63667;49.046;8.468;2023-11-19T02:37:57;2.30;;;2.03;;
142;SDS011;63667;49.046;8.468;2023-11-19T02:40:29;3.30;;;2.30;;
142;SDS011;63667;49.046;8.468;2023-11-19T02:42:55;2.77;;;2.43;;
142;SDS011;63667;49.046;8.468;2023-11-19T02:45:23;4.23;;;2.87;;
142;SDS011;63667;49.046;8.468;2023-11-19T02:47:51;4.87;;;2.03;;
142;SDS011;63667;49.046;8.468;2023-11-19T02:50:18;2.90;;;2.27;;
142;SDS011;63667;49.046;8.468;2023-11-19T02:52:51;2.43;;;2.33;;
142;SDS011;63667;49.046;8.468;2023-11-19T02:55:18;2.60;;;2.40;;
142;SDS011;63667;49.046;8.468;2023-11-19T02:57:45;3.60;;;2.30;;
142;SDS011;63667;49.046;8.468;2023-11-19T03:00:17;8.23;;;2.70;;
142;SDS011;63667;49.046;8.468;2023-11-19T03:02:44;4.07;;;2.63;;
142;SDS011;63667;49.046;8.468;2023-11-19T03:05:13;2.80;;;2.60;;
142;SDS011;63667;49.046;8.468;2023-11-19T03:07:41;11.60;;;2.60;;
142;SDS011;63667;49.046;8.468;2023-11-19T03:10:09;2.57;;;2.40;;
142;SDS011;63667;49.046;8.468;2023-11-19T03:12:42;2.90;;;2.57;;
142;SDS011;63667;49.046;8.468;2023-11-19T03:15:08;3.70;;;2.70;;
142;SDS011;63667;49.046;8.468;2023-11-19T03:17:36;3.03;;;2.80;;
142;SDS011;63667;49.046;8.468;2023-11-19T03:20:04;3.20;;;2.77;;
142;SDS011;63667;49.046;8.468;2023-11-19T03:22:32;3.43;;;3.03;;
142;SDS011;63667;49.046;8.468;2023-11-19T03:25:01;3.60;;;2.20;;
142;SDS011;63667;49.046;8.468;2023-11-19T03:27:28;3.70;;;2.93;;
142;SDS011;63667;49.046;8.468;2023-11-19T03:29:55;4.17;;;3.00;;
142;SDS011;63667;49.046;8.468;2023-11-19T03:32:21;3.10;;;2.83;;
142;SDS011;63667;49.046;8.468;2023-11-19T03:34:47;4.60;;;3.00;;
142;SDS011;63667;49.046;8.468;2023-11-19T03:37:14;5.90;;;3.00;;
142;SDS011;63667;49.046;8.468;2023-11-19T03:39:42;5.57;;;3.10;;
142;SDS011;63667;49.046;8.468;2023-11-19T03:42:09;4.50;;;2.63;;
142;SDS011;63667;49.046;8.468;2023-11-19T03:44:38;3.90;;;2.63;;
142;SDS011;63667;49.046;8.468;2023-11-19T03:47:05;3.97;;;2.57;;
142;SDS011;63667;49.046;8.468;2023-11-19T03:49:31;2.70;;;2.50;;
142;SDS011;63667;49.046;8.468;2023-11-19T03:51:57;3.73;;;2.80;;
142;SDS011;63667;49.046;8.468;2023-11-19T03:54:25;3.73;;;3.10;;
142;SDS011;63667;49.046;8.468;2023-11-19T03:56:53;3.27;;;2.90;;
142;SDS011;63667;49.046;8.468;2023-11-19T03:59:19;2.83;;;2.67;;
142;SDS011;63667;49.046;8.468;2023-11-19T04:01:46;3.03;;;2.70;;
142;SDS011;63667;49.046;8.468;2023-11-19T04:04:12;3.80;;;2.67;;
142;SDS011;63667;49.046;8.468;2023-11-19T04:06:39;4.33;;;2.50;;
142;SDS011;63667;49.046;8.468;2023-11-19T04:09:06;4.17;;;2.80;;
142;SDS011;63667;49.046;8.468;2023-11-19T04:11:32;3.60;;;2.30;;
142;SDS011;63667;49.046;8.468;2023-11-19T04:13:58;2.70;;;2.53;;
142;SDS011;63667;49.046;8.468;2023-11-19T04:16:25;2.93;;;2.60;;
142;SDS011;63667;49.046;8.468;2023-11-19T04:18:53;2.67;;;2.40;;
142;SDS011;63667;49.046;8.468;2023-11-19T04:21:20;3.80;;;2.50;;
142;SDS011;63667;49.046;8.468;2023-11-19T04:23:48;5.77;;;2.73;;
142;SDS011;63667;49.046;8.468;2023-11-19T04:26:14;4.93;;;2.67;;
142;SDS011;63667;49.046;8.468;2023-11-19T04:28:41;3.73;;;2.43;;
142;SDS011;63667;49.046;8.468;2023-11-19T04:31:07;2.73;;;2.53;;
142;SDS011;63667;49.046;8.468;2023-11-19T04:33:34;3.60;;;2.40;;
142;SDS011;63667;49.046;8.468;2023-11-19T04:36:01;3.07;;;2.40;;
142;SDS011;63667;49.046;8.468;2023-11-19T04:38:27;2.30;;;2.07;;
142;SDS011;63667;49.046;8.468;2023-11-19T04:40:54;3.17;;;2.17;;
142;SDS011;63667;49.046;8.468;2023-11-19T04:43:22;2.80;;;2.27;;
142;SDS011;63667;49.046;8.468;2023-11-19T04:45:49;3.80;;;2.27;;
142;SDS011;63667;49.046;8.468;2023-11-19T04:48:15;2.30;;;2.20;;
142;SDS011;63667;49.046;8.468;2023-11-19T04:50:41;2.30;;;2.10;;
142;SDS011;63667;49.046;8.468;2023-11-19T04:53:08;2.50;;;1.90;;
142;SDS011;63667;49.046;8.468;2023-11-19T04:55:34;2.70;;;2.30;;
142;SDS011;63667;49.046;8.468;2023-11-19T04:58:00;2.57;;;2.20;;
142;SDS011;63667;49.046;8.468;2023-11-19T05:00:27;5.23;;;2.30;;
142;SDS011;63667;49.046;8.468;2023-11-19T05:02:53;2.43;;;2.10;;
142;SDS011;63667;49.046;8.468;2023-11-19T05:05:19;6.47;;;1.90;;
142;SDS011;63667;49.046;8.468;2023-11-19T05:07:46;3.93;;;2.27;;
142;SDS011;63667;49.046;8.468;2023-11-19T05:10:12;3.10;;;2.10;;
142;SDS011;63667;49.046;8.468;2023-11-19T05:12:39;2.40;;;2.00;;
142;SDS011;63667;49.046;8.468;2023-11-19T05:15:06;1.90;;;1.70;;
142;SDS011;63667;49.046;8.468;2023-11-19T05:17:33;2.93;;;2.00;;
142;SDS011;63667;49.046;8.468;2023-11-19T05:19:59;2.57;;;1.90;;
142;SDS011;63667;49.046;8.468;2023-11-19T05:22:26;2.30;;;1.90;;
142;SDS011;63667;49.046;8.468;2023-11-19T05:24:52;2.43;;;2.10;;
142;SDS011;63667;49.046;8.468;2023-11-19T05:27:19;3.30;;;1.93;;
142;SDS011;63667;49.046;8.468;2023-11-19T05:29:46;7.10;;;1.70;;
142;SDS011;63667;49.046;8.468;2023-11-19T05:32:12;2.00;;;1.80;;
142;SDS011;63667;49.046;8.468;2023-11-19T05:34:38;2.33;;;2.00;;
142;SDS011;63667;49.046;8.468;2023-11-19T05:37:05;3.40;;;1.77;;
142;SDS011;63667;49.046;8.468;2023-11-19T05:39:31;2.93;;;1.60;;
142;SDS011;63667;49.046;8.468;2023-11-19T05:41:58;2.23;;;1.60;;
142;SDS011;63667;49.046;8.468;2023-11-19T05:44:24;2.33;;;1.83;;
142;SDS011;63667;49.046;8.468;2023-11-19T05:46:50;3.80;;;1.80;;
142;SDS011;63667;49.046;8.468;2023-11-19T05:49:17;1.83;;;1.40;;
142;SDS011;63667;49.046;8.468;2023-11-19T05:51:43;2.43;;;1.70;;
142;SDS011;63667;49.046;8.468;2023-11-19T05:54:10;8.80;;;1.77;;
142;SDS011;63667;49.046;8.468;2023-11-19T05:56:36;2.77;;;1.70;;
142;SDS011;63667;49.046;8.468;2023-11-19T05:59:03;2.00;;;1.50;;
142;SDS011;63667;49.046;8.468;2023-11-19T06:01:34;3.17;;;1.67;;
142;SDS011;63667;49.046;8.468;2023-11-19T06:04:01;2.03;;;1.50;;
142;SDS011;63667;49.046;8.468;2023-11-19T06:06:28;2.10;;;1.50;;
142;SDS011;63667;49.046;8.468;2023-11-19T06:08:54;2.00;;;1.50;;
142;SDS011;63667;49.046;8.468;2023-11-19T06:11:21;4.43;;;1.47;;
142;SDS011;63667;49.046;8.468;2023-11-19T06:13:48;2.30;;;1.70;;
142;SDS011;63667;49.046;8.468;2023-11-19T06:16:16;3.90;;;1.40;;
142;SDS011;63667;49.046;8.468;2023-11-19T06:18:42;1.90;;;1.40;;
142;SDS011;63667;49.046;8.468;2023-11-19T06:21:09;2.20;;;1.57;;
142;SDS011;63667;49.046;8.468;2023-11-19T06:23:36;3.93;;;1.67;;
142;SDS011;63667;49.046;8.468;2023-11-19T06:26:02;1.80;;;1.50;;
142;SDS011;63667;49.046;8.468;2023-11-19T06:28:30;1.83;;;1.43;;
142;SDS011;63667;49.046;8.468;2023-11-19T06:30:57;1.70;;;1.33;;
142;SDS011;63667;49.046;8.468;2023-11-19T06:33:26;2.00;;;1.50;;
142;SDS011;63667;49.046;8.468;2023-11-19T06:35:53;2.03;;;1.53;;
142;SDS011;63667;49.046;8.468;2023-11-19T06:38:20;2.13;;;1.50;;
142;SDS011;63667;49.046;8.468;2023-11-19T06:40:46;2.00;;;1.60;;
142;SDS011;63667;49.046;8.468;2023-11-19T06:43:12;16.53;;;1.53;;
142;SDS011;63667;49.046;8.468;2023-11-19T06:45:39;2.83;;;1.40;;
142;SDS011;63667;49.046;8.468;2023-11-19T06:48:05;3.03;;;1.60;;
142;SDS011;63667;49.046;8.468;2023-11-19T06:50:32;1.80;;;1.50;;
142;SDS011;63667;49.046;8.468;2023-11-19T06:52:59;1.80;;;1.40;;
142;SDS011;63667;49.046;8.468;2023-11-19T06:55:28;2.20;;;1.70;;
142;SDS011;63667;49.046;8.468;2023-11-19T06:57:55;5.47;;;1.53;;
142;SDS011;63667;49.046;8.468;2023-11-19T07:00:22;5.10;;;2.03;;
142;SDS011;63667;49.046;8.468;2023-11-19T07:02:48;2.30;;;1.63;;
142;SDS011;63667;49.046;8.468;2023-11-19T07:05:16;1.90;;;1.50;;
142;SDS011;63667;49.046;8.468;2023-11-19T07:07:43;3.17;;;1.70;;
142;SDS011;63667;49.046;8.468;2023-11-19T07:10:12;2.10;;;1.60;;
142;SDS011;63667;49.046;8.468;2023-11-19T07:12:38;2.83;;;1.50;;
142;SDS011;63667;49.046;8.468;2023-11-19T07:15:05;2.53;;;1.90;;
142;SDS011;63667;49.046;8.468;2023-11-19T07:17:31;2.73;;;1.70;;
142;SDS011;63667;49.046;8.468;2023-11-19T07:19:58;2.97;;;1.60;;
142;SDS011;63667;49.046;8.468;2023-11-19T07:22:25;2.20;;;1.53;;
142;SDS011;63667;49.046;8.468;2023-11-19T07:24:51;1.90;;;1.70;;
142;SDS011;63667;49.046;8.468;2023-11-19T07:27:21;3.17;;;1.50;;
142;SDS011;63667;49.046;8.468;2023-11-19T07:29:49;1.90;;;1.57;;
142;SDS011;63667;49.046;8.468;2023-11-19T07:32:16;2.00;;;1.70;;
142;SDS011;63667;49.046;8.468;2023-11-19T07:34:43;3.90;;;1.60;;
142;SDS011;63667;49.046;8.468;2023-11-19T07:37:09;3.70;;;1.40;;
142;SDS011;63667;49.046;8.468;2023-11-19T07:39:36;3.53;;;1.47;;
142;SDS011;63667;49.046;8.468;2023-11-19T07:42:06;1.80;;;1.70;;
142;SDS011;63667;49.046;8.468;2023-11-19T07:44:32;3.60;;;1.57;;
142;SDS011;63667;49.046;8.468;2023-11-19T07:46:59;2.10;;;1.57;;
142;SDS011;63667;49.046;8.468;2023-11-19T07:49:25;3.43;;;1.80;;
142;SDS011;63667;49.046;8.468;2023-11-19T07:51:52;2.20;;;1.87;;
142;SDS011;63667;49.046;8.468;2023-11-19T07:54:18;1.90;;;1.50;;
142;SDS011;63667;49.046;8.468;2023-11-19T07:56:46;3.00;;;1.57;;
142;SDS011;63667;49.046;8.468;2023-11-19T07:59:15;2.83;;;1.50;;
142;SDS011;63667;49.046;8.468;2023-11-19T08:01:41;1.80;;;1.30;;
142;SDS011;63667;49.046;8.468;2023-11-19T08:04:07;6.17;;;1.60;;
142;SDS011;63667;49.046;8.468;2023-11-19T08:06:34;3.80;;;2.00;;
142;SDS011;63667;49.046;8.468;2023-11-19T08:09:00;5.00;;;2.13;;
142;SDS011;63667;49.046;8.468;2023-11-19T08:11:27;2.83;;;2.00;;
142;SDS011;63667;49.046;8.468;2023-11-19T08:13:53;7.33;;;4.40;;
142;SDS011;63667;49.046;8.468;2023-11-19T08:16:20;3.07;;;2.27;;
142;SDS011;63667;49.046;8.468;2023-11-19T08:18:46;1.87;;;1.60;;
142;SDS011;63667;49.046;8.468;2023-11-19T08:21:12;6.07;;;1.50;;
142;SDS011;63667;49.046;8.468;2023-11-19T08:23:39;2.10;;;1.90;;
142;SDS011;63667;49.046;8.468;2023-11-19T08:26:05;1.87;;;1.70;;
142;SDS011;63667;49.046;8.468;2023-11-19T08:28:32;2.50;;;1.50;;
142;SDS011;63667;49.046;8.468;2023-11-19T08:30:59;4.37;;;1.67;;
142;SDS011;63667;49.046;8.468;2023-11-19T08:33:26;7.70;;;1.90;;
142;SDS011;63667;49.046;8.468;2023-11-19T08:35:52;2.03;;;1.73;;
142;SDS011;63667;49.046;8.468;2023-11-19T08:38:19;2.37;;;1.63;;
142;SDS011;63667;49.046;8.468;2023-11-19T08:40:45;1.90;;;1.60;;
142;SDS011;63667;49.046;8.468;2023-11-19T08:43:12;2.37;;;1.53;;
142;SDS011;63667;49.046;8.468;2023-11-19T08:45:38;1.90;;;1.60;;
142;SDS011;63667;49.046;8.468;2023-11-19T08:48:04;2.00;;;1.70;;
142;SDS011;63667;49.046;8.468;2023-11-19T08:50:31;1.83;;;1.50;;
142;SDS011;63667;49.046;8.468;2023-11-19T08:52:57;1.90;;;1.70;;
142;SDS011;63667;49.046;8.468;2023-11-19T08:55:24;2.57;;;1.80;;
142;SDS011;63667;49.046;8.468;2023-11-19T08:57:51;2.73;;;1.70;;
142;SDS011;63667;49.046;8.468;2023-11-19T09:00:18;2.60;;;1.80;;
142;SDS011;63667;49.046;8.468;2023-11-19T09:02:44;2.53;;;1.77;;
142;SDS011;63667;49.046;8.468;2023-11-19T09:05:10;2.10;;;1.80;;
142;SDS011;63667;49.046;8.468;2023-11-19T09:07:38;3.80;;;1.90;;
142;SDS011;63667;49.046;8.468;2023-11-19T09:10:04;2.07;;;1.70;;
142;SDS011;63667;49.046;8.468;2023-11-19T09:12:31;4.03;;;2.00;;
142;SDS011;63667;49.046;8.468;2023-11-19T09:14:57;3.27;;;1.87;;
142;SDS011;63667;49.046;8.468;2023-11-19T09:17:24;2.20;;;1.70;;
142;SDS011;63667;49.046;8.468;2023-11-19T09:19:50;2.10;;;1.77;;
142;SDS011;63667;49.046;8.468;2023-11-19T09:22:16;2.20;;;1.77;;
142;SDS011;63667;49.046;8.468;2023-11-19T09:24:43;2.27;;;1.70;;
142;SDS011;63667;49.046;8.468;2023-11-19T09:27:10;1.90;;;1.60;;
142;SDS011;63667;49.046;8.468;2023-11-19T09:29:37;4.93;;;1.90;;
142;SDS011;63667;49.046;8.468;2023-11-19T09:32:03;2.97;;;2.27;;
142;SDS011;63667;49.046;8.468;2023-11-19T09:34:29;2.10;;;1.73;;
142;SDS011;63667;49.046;8.468;2023-11-19T09:36:57;2.10;;;1.60;;
142;SDS011;63667;49.046;8.468;2023-11-19T09:39:23;3.80;;;1.83;;
142;SDS011;63667;49.046;8.468;2023-11-19T09:41:51;2.30;;;1.57;;
142;SDS011;63667;49.046;8.468;2023-11-19T09:44:17;2.43;;;1.60;;
142;SDS011;63667;49.046;8.468;2023-11-19T09:46:44;2.10;;;1.70;;
142;SDS011;63667;49.046;8.468;2023-11-19T09:49:11;2.57;;;1.80;;
142;SDS011;63667;49.046;8.468;2023-11-19T09:51:39;2.87;;;2.00;;
142;SDS011;63667;49.046;8.468;2023-11-19T09:54:05;2.63;;;1.80;;
142;SDS011;63667;49.046;8.468;2023-11-19T09:56:32;4.07;;;2.10;;
142;SDS011;63667;49.046;8.468;2023-11-19T09:58:59;3.23;;;1.90;;
142;SDS011;63667;49.046;8.468;2023-11-19T10:01:25;2.33;;;1.93;;
142;SDS011;63667;49.046;8.468;2023-11-19T10:03:52;2.90;;;2.00;;
142;SDS011;63667;49.046;8.468;2023-11-19T10:06:21;3.47;;;2.10;;
142;SDS011;63667;49.046;8.468;2023-11-19T10:08:48;3.70;;;1.87;;
142;SDS011;63667;49.046;8.468;2023-11-19T10:11:14;4.63;;;2.00;;
142;SDS011;63667;49.046;8.468;2023-11-19T10:13:41;2.10;;;1.90;;
142;SDS011;63667;49.046;8.468;2023-11-19T10:16:08;2.13;;;1.97;;
142;SDS011;63667;49.046;8.468;2023-11-19T10:18:36;4.67;;;2.23;;
142;SDS011;63667;49.046;8.468;2023-11-19T10:21:04;2.60;;;2.03;;
142;SDS011;63667;49.046;8.468;2023-11-19T10:23:31;4.07;;;2.20;;
142;SDS011;63667;49.046;8.468;2023-11-19T10:26:13;3.40;;;1.90;;
142;SDS011;63667;49.046;8.468;2023-11-19T10:28:39;3.90;;;2.20;;
142;SDS011;63667;49.046;8.468;2023-11-19T10:31:09;2.20;;;1.70;;
142;SDS011;63667;49.046;8.468;2023-11-19T10:33:36;2.00;;;1.77;;
142;SDS011;63667;49.046;8.468;2023-11-19T10:36:02;2.00;;;1.70;;
142;SDS011;63667;49.046;8.468;2023-11-19T10:38:28;3.80;;;2.03;;
142;SDS011;63667;49.046;8.468;2023-11-19T10:40:56;3.33;;;2.00;;
142;SDS011;63667;49.046;8.468;2023-11-19T10:46:08;5.63;;;2.13;;
142;SDS011;63667;49.046;8.468;2023-11-19T10:48:35;2.20;;;1.90;;
142;SDS011;63667;49.046;8.468;2023-11-19T10:51:01;2.43;;;2.10;;
142;SDS011;63667;49.046;8.468;2023-11-19T10:53:37;2.40;;;1.80;;
142;SDS011;63667;49.046;8.468;2023-11-19T10:56:06;2.97;;;2.03;;
142;SDS011;63667;49.046;8.468;2023-11-19T10:58:36;2.40;;;2.10;;
142;SDS011;63667;49.046;8.468;2023-11-19T11:01:09;3.17;;;2.23;;
142;SDS011;63667;49.046;8.468;2023-11-19T11:03:39;2.30;;;2.00;;
142;SDS011;63667;49.046;8.468;2023-11-19T11:06:06;2.80;;;1.93;;
142;SDS011;63667;49.046;8.468;2023-11-19T11:08:32;2.83;;;2.30;;
142;SDS011;63667;49.046;8.468;2023-11-19T11:11:02;5.73;;;2.03;;
142;SDS011;63667;49.046;8.468;2023-11-19T11:13:29;8.13;;;2.60;;
142;SDS011;63667;49.046;8.468;2023-11-19T11:15:58;8.67;;;2.10;;
142;SDS011;63667;49.046;8.468;2023-11-19T11:18:24;4.83;;;2.10;;
142;SDS011;63667;49.046;8.468;2023-11-19T11:20:52;3.90;;;2.10;;
142;SDS011;63667;49.046;8.468;2023-11-19T11:28:26;3.27;;;2.00;;
142;SDS011;63667;49.046;8.468;2023-11-19T11:36:02;6.00;;;2.10;;
142;SDS011;63667;49.046;8.468;2023-11-19T11:38:35;6.40;;;2.10;;
142;SDS011;63667;49.046;8.468;2023-11-19T11:41:15;4.37;;;2.20;;
142;SDS011;63667;49.046;8.468;2023-11-19T11:43:53;5.77;;;1.83;;
142;SDS011;63667;49.046;8.468;2023-11-19T11:49:04;3.53;;;2.33;;
142;SDS011;63667;49.046;8.468;2023-11-19T11:54:25;5.40;;;2.00;;
142;SDS011;63667;49.046;8.468;2023-11-19T11:57:10;2.97;;;2.20;;
142;SDS011;63667;49.046;8.468;2023-11-19T12:02:04;2.97;;;1.90;;
142;SDS011;63667;49.046;8.468;2023-11-19T12:04:31;5.90;;;2.20;;
142;SDS011;63667;49.046;8.468;2023-11-19T12:09:55;3.60;;;2.10;;
142;SDS011;63667;49.046;8.468;2023-11-19T12:12:33;2.70;;;2.20;;
142;SDS011;63667;49.046;8.468;2023-11-19T12:15:07;4.77;;;2.10;;
142;SDS011;63667;49.046;8.468;2023-11-19T12:17:48;3.27;;;2.17;;
142;SDS011;63667;49.046;8.468;2023-11-19T12:20:15;9.83;;;2.20;;
142;SDS011;63667;49.046;8.468;2023-11-19T12:22:42;3.03;;;2.00;;
142;SDS011;63667;49.046;8.468;2023-11-19T12:25:10;3.23;;;2.00;;
142;SDS011;63667;49.046;8.468;2023-11-19T12:27:39;2.73;;;2.07;;
142;SDS011;63667;49.046;8.468;2023-11-19T12:30:06;4.27;;;2.40;;
142;SDS011;63667;49.046;8.468;2023-11-19T12:32:37;2.87;;;2.00;;
142;SDS011;63667;49.046;8.468;2023-11-19T12:35:04;5.13;;;2.00;;
142;SDS011;63667;49.046;8.468;2023-11-19T12:37:30;8.33;;;2.70;;
142;SDS011;63667;49.046;8.468;2023-11-19T12:39:57;3.60;;;2.07;;
142;SDS011;63667;49.046;8.468;2023-11-19T12:42:36;3.13;;;2.00;;
142;SDS011;63667;49.046;8.468;2023-11-19T12:45:04;3.80;;;2.20;;
142;SDS011;63667;49.046;8.468;2023-11-19T12:47:31;4.10;;;2.30;;
142;SDS011;63667;49.046;8.468;2023-11-19T12:49:58;5.50;;;2.57;;
142;SDS011;63667;49.046;8.468;2023-11-19T12:52:24;2.90;;;2.40;;
142;SDS011;63667;49.046;8.468;2023-11-19T12:54:51;2.57;;;2.03;;
142;SDS011;63667;49.046;8.468;2023-11-19T12:57:17;2.83;;;2.00;;
142;SDS011;63667;49.046;8.468;2023-11-19T12:59:56;3.53;;;2.20;;
142;SDS011;63667;49.046;8.468;2023-11-19T13:02:22;3.03;;;2.27;;
142;SDS011;63667;49.046;8.468;2023-11-19T13:04:48;3.90;;;2.83;;
142;SDS011;63667;49.046;8.468;2023-11-19T13:07:20;6.53;;;2.50;;
142;SDS011;63667;49.046;8.468;2023-11-19T13:09:46;4.77;;;2.40;;
142;SDS011;63667;49.046;8.468;2023-11-19T13:12:13;3.70;;;2.30;;
142;SDS011;63667;49.046;8.468;2023-11-19T13:14:40;3.90;;;2.30;;
142;SDS011;63667;49.046;8.468;2023-11-19T13:17:07;2.90;;;2.37;;
142;SDS011;63667;49.046;8.468;2023-11-19T13:19:34;2.83;;;2.17;;
142;SDS011;63667;49.046;8.468;2023-11-19T13:22:00;3.27;;;2.20;;
142;SDS011;63667;49.046;8.468;2023-11-19T13:24:26;4.60;;;2.27;;
142;SDS011;63667;49.046;8.468;2023-11-19T13:26:53;2.70;;;1.87;;
142;SDS011;63667;49.046;8.468;2023-11-19T13:29:21;3.20;;;1.83;;
142;SDS011;63667;49.046;8.468;2023-11-19T13:31:47;4.00;;;2.10;;
142;SDS011;63667;49.046;8.468;2023-11-19T13:34:15;4.70;;;2.27;;
142;SDS011;63667;49.046;8.468;2023-11-19T13:36:41;2.97;;;1.80;;
142;SDS011;63667;49.046;8.468;2023-11-19T13:39:07;4.20;;;2.10;;
142;SDS011;63667;49.046;8.468;2023-11-19T13:41:34;5.10;;;1.90;;
142;SDS011;63667;49.046;8.468;2023-11-19T13:44:00;3.60;;;2.00;;
142;SDS011;63667;49.046;8.468;2023-11-19T13:46:26;3.67;;;2.03;;
142;SDS011;63667;49.046;8.468;2023-11-19T13:48:53;9.37;;;2.20;;
142;SDS011;63667;49.046;8.468;2023-11-19T13:51:19;6.03;;;2.27;;
142;SDS011;63667;49.046;8.468;2023-11-19T13:53:46;2.30;;;1.77;;
142;SDS011;63667;49.046;8.468;2023-11-19T13:56:12;2.73;;;2.00;;
142;SDS011;63667;49.046;8.468;2023-11-19T13:58:39;5.23;;;2.60;;
142;SDS011;63667;49.046;8.468;2023-11-19T14:01:06;8.13;;;1.70;;
142;SDS011;63667;49.046;8.468;2023-11-19T14:03:32;5.80;;;1.97;;
142;SDS011;63667;49.046;8.468;2023-11-19T14:05:59;3.40;;;2.00;;
142;SDS011;63667;49.046;8.468;2023-11-19T14:08:26;7.00;;;2.30;;
142;SDS011;63667;49.046;8.468;2023-11-19T14:10:52;3.20;;;2.07;;
142;SDS011;63667;49.046;8.468;2023-11-19T14:13:21;7.30;;;2.20;;
142;SDS011;63667;49.046;8.468;2023-11-19T14:15:48;4.17;;;1.90;;
142;SDS011;63667;49.046;8.468;2023-11-19T14:18:15;6.00;;;2.10;;
142;SDS011;63667;49.046;8.468;2023-11-19T14:20:41;3.40;;;1.80;;
142;SDS011;63667;49.046;8.468;2023-11-19T14:23:08;3.13;;;2.03;;
142;SDS011;63667;49.046;8.468;2023-11-19T14:25:34;3.43;;;1.80;;
142;SDS011;63667;49.046;8.468;2023-11-19T14:28:00;3.20;;;2.00;;
142;SDS011;63667;49.046;8.468;2023-11-19T14:30:27;2.53;;;2.00;;
142;SDS011;63667;49.046;8.468;2023-11-19T14:32:53;3.60;;;2.10;;
142;SDS011;63667;49.046;8.468;2023-11-19T14:35:19;2.20;;;1.90;;
142;SDS011;63667;49.046;8.468;2023-11-19T14:37:46;3.30;;;1.77;;
142;SDS011;63667;49.046;8.468;2023-11-19T14:40:12;3.23;;;2.27;;
142;SDS011;63667;49.046;8.468;2023-11-19T14:42:39;4.23;;;2.10;;
142;SDS011;63667;49.046;8.468;2023-11-19T14:45:06;2.50;;;1.97;;
142;SDS011;63667;49.046;8.468;2023-11-19T14:47:33;3.50;;;2.10;;
142;SDS011;63667;49.046;8.468;2023-11-19T14:49:59;3.50;;;2.40;;
142;SDS011;63667;49.046;8.468;2023-11-19T14:52:26;4.00;;;1.70;;
142;SDS011;63667;49.046;8.468;2023-11-19T14:54:52;4.90;;;1.90;;
142;SDS011;63667;49.046;8.468;2023-11-19T14:57:19;6.37;;;2.13;;
142;SDS011;63667;49.046;8.468;2023-11-19T14:59:46;3.97;;;2.20;;
142;SDS011;63667;49.046;8.468;2023-11-19T15:02:12;5.00;;;2.43;;
142;SDS011;63667;49.046;8.468;2023-11-19T15:04:39;4.30;;;2.30;;
142;SDS011;63667;49.046;8.468;2023-11-19T15:07:06;3.63;;;1.97;;
142;SDS011;63667;49.046;8.468;2023-11-19T15:09:33;3.33;;;1.97;;
142;SDS011;63667;49.046;8.468;2023-11-19T15:12:02;3.80;;;2.10;;
142;SDS011;63667;49.046;8.468;2023-11-19T15:14:28;2.20;;;1.90;;
142;SDS011;63667;49.046;8.468;2023-11-19T15:16:55;4.63;;;2.20;;
142;SDS011;63667;49.046;8.468;2023-11-19T15:19:23;7.83;;;2.10;;
142;SDS011;63667;49.046;8.468;2023-11-19T15:21:50;2.83;;;2.30;;
142;SDS011;63667;49.046;8.468;2023-11-19T15:24:16;5.20;;;2.47;;
142;SDS011;63667;49.046;8.468;2023-11-19T15:26:42;4.70;;;2.10;;
142;SDS011;63667;49.046;8.468;2023-11-19T15:29:09;4.53;;;1.80;;
142;SDS011;63667;49.046;8.468;2023-11-19T15:31:35;2.90;;;2.20;;
142;SDS011;63667;49.046;8.468;2023-11-19T15:34:02;2.53;;;2.00;;
142;SDS011;63667;49.046;8.468;2023-11-19T15:36:28;2.40;;;1.80;;
142;SDS011;63667;49.046;8.468;2023-11-19T15:38:57;2.63;;;2.00;;